createdAt,value
2023-04-12T00:01:52.821Z,73.00
2023-04-12T00:04:22.985Z,73.87
2023-04-12T00:06:50.071Z,73.46
2023-04-12T00:09:17.027Z,73.10
2023-04-12T00:11:44.010Z,73.34
2023-04-12T00:14:11.306Z,74.18
2023-04-12T00:16:39.157Z,74.58
2023-04-12T00:19:06.890Z,74.25
2023-04-12T00:21:33.764Z,75.04
2023-04-12T00:24:01.408Z,74.34
2023-04-12T00:26:28.493Z,75.27
2023-04-12T00:28:56.952Z,75.13
2023-04-12T00:31:24.017Z,74.42
2023-04-12T00:33:51.120Z,74.16
2023-04-12T00:36:18.157Z,74.68
2023-04-12T00:38:48.056Z,74.69
2023-04-12T00:41:15.488Z,74.04
2023-04-12T00:43:42.585Z,73.87
2023-04-12T00:46:11.828Z,74.05
2023-04-12T00:48:39.560Z,73.48
2023-04-12T00:51:07.768Z,73.80
2023-04-12T00:53:34.775Z,73.11
2023-04-12T00:56:01.987Z,73.91
2023-04-12T00:58:28.974Z,73.68
2023-04-12T01:03:31.513Z,74.11
2023-04-12T01:06:14.126Z,74.86
2023-04-12T01:09:17.323Z,74.10
2023-04-12T01:12:02.554Z,75.01
2023-04-12T01:14:46.984Z,76.34
2023-04-12T01:17:25.146Z,76.53
2023-04-12T01:20:14.763Z,78.98
2023-04-12T01:23:10.096Z,79.65
2023-04-12T01:25:49.195Z,81.37
2023-04-12T01:28:24.103Z,80.91
2023-04-12T01:30:54.670Z,81.63
2023-04-12T01:33:22.511Z,82.29
2023-04-12T01:35:51.804Z,81.85
2023-04-12T01:38:19.307Z,81.48
2023-04-12T01:40:46.387Z,80.69
2023-04-12T01:43:16.180Z,80.56
2023-04-12T01:45:43.242Z,80.83
2023-04-12T01:48:11.995Z,80.83
2023-04-12T01:50:50.190Z,80.13
2023-04-12T01:53:35.788Z,80.88
2023-04-12T01:56:08.846Z,81.10
2023-04-12T01:58:37.746Z,80.81
2023-04-12T02:01:06.024Z,81.13
2023-04-12T02:03:34.056Z,80.67
2023-04-12T02:06:02.890Z,80.54
2023-04-12T02:08:30.200Z,80.28
2023-04-12T02:10:57.297Z,80.29
2023-04-12T02:13:24.854Z,79.96
2023-04-12T02:15:54.646Z,79.61
2023-04-12T02:18:22.083Z,79.77
2023-04-12T02:20:50.155Z,79.75
2023-04-12T02:23:17.040Z,79.11
2023-04-12T02:25:46.734Z,79.17
2023-04-12T02:28:13.838Z,78.42
2023-04-12T02:30:41.934Z,78.24
2023-04-12T02:33:11.995Z,79.02
2023-04-12T02:35:39.102Z,78.22
2023-04-12T02:38:09.632Z,77.91
2023-04-12T02:40:42.794Z,78.52
2023-04-12T02:43:10.152Z,78.06
2023-04-12T02:45:36.946Z,78.09
2023-04-12T02:48:05.440Z,78.21
2023-04-12T02:50:48.080Z,77.56
2023-04-12T02:53:16.534Z,77.77
2023-04-12T02:55:44.869Z,77.77
2023-04-12T02:58:13.158Z,77.97
2023-04-12T03:00:40.228Z,78.54
2023-04-12T03:03:09.125Z,77.52
2023-04-12T03:05:36.410Z,78.16
2023-04-12T03:08:03.386Z,78.15
2023-04-12T03:10:30.475Z,78.22
2023-04-12T03:12:57.267Z,78.05
2023-04-12T03:15:24.230Z,78.07
2023-04-12T03:17:51.634Z,77.84
2023-04-12T03:20:20.601Z,76.97
2023-04-12T03:22:47.802Z,77.50
2023-04-12T03:25:14.596Z,77.50
2023-04-12T03:27:41.405Z,77.55
2023-04-12T03:30:09.108Z,76.56
2023-04-12T03:32:36.223Z,75.86
2023-04-12T03:35:03.399Z,74.72
2023-04-12T03:37:30.580Z,74.84
2023-04-12T03:39:57.418Z,73.97
2023-04-12T03:42:32.934Z,74.06
2023-04-12T03:45:01.400Z,74.18
2023-04-12T03:47:28.471Z,74.21
2023-04-12T03:50:09.738Z,74.39
2023-04-12T03:52:38.777Z,74.42
2023-04-12T03:55:07.888Z,74.66
2023-04-12T03:57:35.390Z,75.07
2023-04-12T04:00:02.845Z,75.57
2023-04-12T04:02:32.114Z,75.57
2023-04-12T04:04:59.433Z,75.96
2023-04-12T04:07:26.625Z,75.42
2023-04-12T04:09:55.394Z,75.85
2023-04-12T04:12:22.188Z,74.88
2023-04-12T04:14:49.192Z,74.57
2023-04-12T04:17:16.148Z,73.28
2023-04-12T04:19:42.920Z,72.69
2023-04-12T04:22:10.316Z,72.82
2023-04-12T04:24:39.267Z,71.86
2023-04-12T04:27:06.590Z,71.06
2023-04-12T04:29:34.137Z,71.64
2023-04-12T04:32:01.623Z,71.64
2023-04-12T04:34:28.728Z,71.75
2023-04-12T04:36:55.608Z,72.90
2023-04-12T04:39:22.992Z,72.83
2023-04-12T04:41:55.140Z,72.93
2023-04-12T04:44:22.567Z,73.27
2023-04-12T04:46:49.579Z,73.50
2023-04-12T04:49:16.625Z,74.39
2023-04-12T04:51:43.509Z,74.10
2023-04-12T04:54:10.687Z,72.49
2023-04-12T04:56:37.483Z,72.22
2023-04-12T04:59:04.549Z,72.43
2023-04-12T05:01:32.240Z,70.78
2023-04-12T05:03:59.364Z,69.64
2023-04-12T05:06:27.449Z,68.64
2023-04-12T05:08:54.315Z,67.99
2023-04-12T05:11:21.382Z,67.48
2023-04-12T05:13:48.390Z,67.40
2023-04-12T05:16:15.219Z,66.33
2023-04-12T05:18:42.113Z,67.48
2023-04-12T05:21:09.046Z,68.06
2023-04-12T05:23:37.604Z,66.65
2023-04-12T05:26:04.960Z,65.97
2023-04-12T05:28:31.965Z,65.11
2023-04-12T05:30:58.889Z,64.09
2023-04-12T05:33:26.046Z,63.57
2023-04-12T05:35:52.955Z,70.65
2023-04-12T05:38:19.972Z,62.64
2023-04-12T05:40:46.907Z,60.30
2023-04-12T05:43:14.216Z,59.78
2023-04-12T05:45:42.164Z,57.37
2023-04-12T05:48:09.343Z,56.51
2023-04-12T05:50:36.420Z,54.11
2023-04-12T05:53:03.694Z,52.84
2023-04-12T05:55:30.858Z,50.29
2023-04-12T05:57:58.830Z,50.07
2023-04-12T06:00:26.521Z,49.16
2023-04-12T06:02:53.675Z,46.99
2023-04-12T06:05:20.840Z,47.11
2023-04-12T06:07:48.521Z,46.93
2023-04-12T06:10:17.548Z,46.10
2023-04-12T06:12:45.329Z,46.00
2023-04-12T06:15:12.375Z,46.90
2023-04-12T06:17:39.262Z,45.79
2023-04-12T06:20:09.856Z,43.37
2023-04-12T06:22:37.429Z,43.47
2023-04-12T06:25:05.308Z,43.49
2023-04-12T06:27:32.350Z,42.60
2023-04-12T06:29:59.425Z,40.40
2023-04-12T06:32:26.451Z,38.81
2023-04-12T06:34:53.649Z,39.53
2023-04-12T06:37:22.224Z,38.17
2023-04-12T06:39:49.181Z,39.75
2023-04-12T06:42:17.611Z,38.81
2023-04-12T06:44:44.538Z,37.44
2023-04-12T06:47:11.536Z,37.74
2023-04-12T06:49:39.176Z,37.49
2023-04-12T06:52:06.100Z,37.46
2023-04-12T06:54:33.668Z,38.15
2023-04-12T06:57:01.838Z,38.95
2023-04-12T06:59:29.277Z,37.47
2023-04-12T07:01:56.256Z,37.83
2023-04-12T07:04:23.208Z,38.75
2023-04-12T07:06:50.156Z,38.28
2023-04-12T07:09:16.946Z,37.99
2023-04-12T07:11:43.819Z,39.17
2023-04-12T07:14:12.235Z,39.45
2023-04-12T07:16:39.168Z,38.95
2023-04-12T07:19:06.624Z,36.70
2023-04-12T07:21:33.434Z,38.60
2023-04-12T07:24:00.381Z,38.06
2023-04-12T07:26:27.388Z,39.06
2023-04-12T07:28:55.088Z,38.44
2023-04-12T07:31:22.612Z,40.04
2023-04-12T07:33:49.928Z,39.61
2023-04-12T07:36:21.241Z,38.59
2023-04-12T07:38:48.941Z,38.50
2023-04-12T07:41:15.929Z,37.43
2023-04-12T07:43:42.681Z,37.67
2023-04-12T07:46:09.860Z,37.99
2023-04-12T07:48:36.993Z,37.55
2023-04-12T07:51:04.192Z,36.94
2023-04-12T07:53:31.589Z,35.29
2023-04-12T07:55:58.543Z,37.81
2023-04-12T07:58:25.589Z,35.39
2023-04-12T08:00:54.198Z,35.29
2023-04-12T08:03:21.362Z,36.80
2023-04-12T08:05:53.503Z,37.16
2023-04-12T08:08:22.407Z,35.88
2023-04-12T08:10:50.239Z,36.15
2023-04-12T08:13:17.256Z,36.79
2023-04-12T08:15:44.214Z,36.27
2023-04-12T08:18:11.417Z,37.37
2023-04-12T08:20:40.690Z,36.20
2023-04-12T08:23:08.139Z,36.51
2023-04-12T08:25:35.069Z,37.69
2023-04-12T08:28:01.998Z,37.71
2023-04-12T08:30:29.151Z,37.59
2023-04-12T08:32:56.239Z,36.58
2023-04-12T08:35:23.917Z,35.52
2023-04-12T08:37:51.327Z,36.69
2023-04-12T08:40:18.425Z,36.12
2023-04-12T08:42:45.261Z,36.16
2023-04-12T08:45:12.802Z,36.19
2023-04-12T08:47:43.228Z,37.94
2023-04-12T08:50:14.191Z,36.26
2023-04-12T08:52:43.046Z,37.30
2023-04-12T08:55:13.064Z,35.76
2023-04-12T08:57:41.429Z,36.79
2023-04-12T09:00:09.891Z,37.15
2023-04-12T09:02:38.548Z,36.68
2023-04-12T09:05:07.110Z,33.79
2023-04-12T09:07:34.501Z,35.00
2023-04-12T09:10:02.201Z,34.22
2023-04-12T09:12:28.963Z,34.57
2023-04-12T09:15:17.802Z,34.94
2023-04-12T09:17:45.738Z,33.73
2023-04-12T09:20:12.553Z,34.15
2023-04-12T09:22:44.607Z,33.38
2023-04-12T09:25:12.836Z,31.61
2023-04-12T09:27:51.215Z,32.28
2023-04-12T09:30:20.353Z,31.61
2023-04-12T09:32:51.266Z,32.05
2023-04-12T09:35:18.860Z,31.70
2023-04-12T09:37:45.836Z,31.85
2023-04-12T09:40:12.935Z,32.15
2023-04-12T09:42:57.940Z,32.73
2023-04-12T09:45:26.520Z,33.84
2023-04-12T09:47:54.910Z,31.75
2023-04-12T09:50:26.820Z,31.80
2023-04-12T09:52:55.100Z,30.45
2023-04-12T09:55:24.256Z,30.73
2023-04-12T09:57:52.709Z,32.12
2023-04-12T10:00:22.757Z,32.28
2023-04-12T10:02:52.449Z,33.00
2023-04-12T10:05:22.270Z,32.16
2023-04-12T10:07:51.232Z,32.08
2023-04-12T10:10:20.250Z,33.44
2023-04-12T10:12:49.216Z,30.94
2023-04-12T10:15:22.039Z,30.36
2023-04-12T10:17:54.209Z,32.38
2023-04-12T10:20:24.802Z,31.53
2023-04-12T10:22:53.873Z,33.12
2023-04-12T10:25:23.556Z,31.76
2023-04-12T10:27:50.845Z,31.88
2023-04-12T10:30:31.836Z,33.26
2023-04-12T10:33:05.177Z,32.72
2023-04-12T10:36:13.276Z,35.40
2023-04-12T10:39:09.939Z,34.14
2023-04-12T10:41:37.782Z,33.06
2023-04-12T10:44:24.213Z,34.04
2023-04-12T10:46:51.655Z,31.47
2023-04-12T10:49:19.254Z,34.57
2023-04-12T10:52:04.012Z,32.99
2023-04-12T10:54:35.500Z,30.95
2023-04-12T10:57:05.964Z,31.07
2023-04-12T10:59:59.599Z,35.63
2023-04-12T11:02:26.994Z,31.94
2023-04-12T11:05:21.554Z,36.01
2023-04-12T11:07:54.084Z,32.65
2023-04-12T11:10:21.913Z,33.10
2023-04-12T11:12:51.197Z,34.54
2023-04-12T11:15:18.485Z,33.97
2023-04-12T11:17:57.861Z,33.49
2023-04-12T11:20:27.723Z,33.83
2023-04-12T11:22:55.217Z,32.74
2023-04-12T11:25:22.115Z,33.37
2023-04-12T11:27:51.578Z,36.86
2023-04-12T11:30:19.834Z,36.28
2023-04-12T11:32:47.891Z,32.22
2023-04-12T11:35:16.920Z,31.69
2023-04-12T11:37:44.558Z,29.72
2023-04-12T11:40:11.998Z,31.38
2023-04-12T11:42:40.132Z,33.09
2023-04-12T11:45:15.765Z,33.69
2023-04-12T11:47:45.103Z,31.57
2023-04-12T11:50:12.071Z,30.81
2023-04-12T11:52:39.124Z,31.72
2023-04-12T11:55:11.422Z,32.60
2023-04-12T11:57:39.163Z,32.69
2023-04-12T12:00:06.998Z,32.74
2023-04-12T12:02:42.948Z,32.89
2023-04-12T12:05:13.649Z,31.94
2023-04-12T12:07:40.871Z,33.10
2023-04-12T12:10:08.769Z,35.76
2023-04-12T12:12:35.636Z,33.01
2023-04-12T12:15:02.773Z,32.41
2023-04-12T12:17:29.776Z,31.10
2023-04-12T12:19:59.612Z,33.16
2023-04-12T12:22:26.536Z,32.13
2023-04-12T12:24:57.226Z,32.88
2023-04-12T12:27:48.959Z,31.63
2023-04-12T12:30:22.070Z,31.36
2023-04-12T12:32:52.585Z,33.20
2023-04-12T12:35:19.999Z,32.71
2023-04-12T12:37:56.213Z,32.29
2023-04-12T12:40:32.616Z,34.03
2023-04-12T12:43:00.604Z,32.86
2023-04-12T12:45:29.320Z,32.53
2023-04-12T12:48:00.063Z,30.21
2023-04-12T12:50:29.754Z,31.67
2023-04-12T12:52:57.597Z,30.52
2023-04-12T12:55:24.963Z,32.99
2023-04-12T12:58:06.838Z,30.82
2023-04-12T13:00:35.756Z,31.12
2023-04-12T13:03:03.404Z,30.41
2023-04-12T13:05:30.928Z,31.62
2023-04-12T13:07:57.749Z,32.44
2023-04-12T13:10:26.684Z,28.75
2023-04-12T13:12:53.819Z,29.98
2023-04-12T13:15:23.773Z,30.98
2023-04-12T13:17:55.291Z,29.89
2023-04-12T13:20:26.014Z,31.74
2023-04-12T13:22:52.856Z,31.53
2023-04-12T13:25:20.694Z,31.28
2023-04-12T13:27:51.905Z,30.68
2023-04-12T13:30:20.053Z,31.00
2023-04-12T13:32:47.508Z,30.57
2023-04-12T13:35:14.326Z,31.78
2023-04-12T13:37:42.082Z,31.45
2023-04-12T13:40:09.586Z,32.52
2023-04-12T13:42:36.617Z,33.35
2023-04-12T13:45:04.848Z,33.04
2023-04-12T13:47:34.015Z,32.98
2023-04-12T13:50:01.952Z,32.97
2023-04-12T13:52:28.906Z,31.66
2023-04-12T13:54:55.726Z,31.52
2023-04-12T13:57:22.625Z,31.57
2023-04-12T13:59:49.572Z,31.33
2023-04-12T14:02:16.550Z,31.04
2023-04-12T14:04:53.796Z,30.55
2023-04-12T14:07:21.469Z,31.39
2023-04-12T14:09:48.916Z,30.64
2023-04-12T14:12:16.138Z,31.56
2023-04-12T14:14:43.109Z,32.86
2023-04-12T14:17:09.932Z,32.74
2023-04-12T14:19:36.864Z,32.17
2023-04-12T14:22:04.129Z,32.73
2023-04-12T14:24:31.574Z,33.00
2023-04-12T14:27:01.031Z,32.47
2023-04-12T14:29:28.012Z,32.07
2023-04-12T14:31:54.847Z,31.79
2023-04-12T14:34:21.669Z,32.82
2023-04-12T14:36:48.585Z,32.66
2023-04-12T14:39:16.283Z,36.21
2023-04-12T14:41:43.292Z,34.22
2023-04-12T14:44:10.197Z,33.47
2023-04-12T14:46:37.098Z,33.87
2023-04-12T14:49:04.025Z,31.81
2023-04-12T14:51:32.240Z,33.27
2023-04-12T14:53:59.278Z,34.33
2023-04-12T14:56:29.931Z,33.06
2023-04-12T14:58:58.046Z,32.26
2023-04-12T15:01:26.107Z,31.75
2023-04-12T15:03:54.586Z,31.51
2023-04-12T15:06:24.254Z,31.47
2023-04-12T15:08:54.726Z,32.18
2023-04-12T15:11:27.529Z,31.94
2023-04-12T15:13:55.634Z,31.29
2023-04-12T15:16:22.843Z,31.04
2023-04-12T15:18:51.760Z,30.92
2023-04-12T15:21:19.045Z,42.97
2023-04-12T15:23:47.336Z,45.23
2023-04-12T15:26:14.617Z,33.33
2023-04-12T15:28:41.978Z,32.89
2023-04-12T15:31:09.722Z,32.16
2023-04-12T15:33:37.539Z,32.87
2023-04-12T15:36:05.466Z,32.11
2023-04-12T15:38:32.444Z,32.13
2023-04-12T15:41:02.824Z,32.41
2023-04-12T15:43:29.853Z,31.43
2023-04-12T15:45:57.436Z,32.07
2023-04-12T15:48:25.849Z,32.40
2023-04-12T15:50:53.869Z,32.33
2023-04-12T15:53:23.470Z,32.56
2023-04-12T15:55:55.565Z,32.49
2023-04-12T15:58:23.742Z,32.82
2023-04-12T16:00:53.188Z,32.35
2023-04-12T16:03:23.376Z,34.69
2023-04-12T16:05:53.521Z,32.99
2023-04-12T16:08:22.515Z,32.52
2023-04-12T16:10:50.854Z,32.15
2023-04-12T16:13:18.746Z,32.30
2023-04-12T16:15:47.051Z,32.93
2023-04-12T16:18:14.629Z,32.98
2023-04-12T16:20:41.467Z,33.17
2023-04-12T16:23:08.938Z,32.79
2023-04-12T16:25:36.393Z,33.34
2023-04-12T16:28:04.189Z,33.67
2023-04-12T16:30:32.511Z,33.67
2023-04-12T16:32:59.954Z,33.80
2023-04-12T16:35:26.896Z,34.35
2023-04-12T16:37:55.566Z,34.06
2023-04-12T16:40:22.505Z,34.57
2023-04-12T16:42:49.392Z,33.72
2023-04-12T16:45:16.433Z,34.31
2023-04-12T16:47:46.635Z,34.28
2023-04-12T16:50:13.784Z,35.07
2023-04-12T16:52:41.703Z,35.47
2023-04-12T16:55:11.730Z,34.33
2023-04-12T16:57:42.804Z,34.72
2023-04-12T17:00:19.667Z,34.76
2023-04-12T17:02:49.374Z,34.91
2023-04-12T17:05:18.245Z,36.52
2023-04-12T17:07:48.124Z,35.95
2023-04-12T17:10:19.780Z,36.19
2023-04-12T17:12:47.823Z,36.78
2023-04-12T17:15:18.737Z,36.79
2023-04-12T17:17:51.515Z,36.97
2023-04-12T17:20:20.787Z,36.77
2023-04-12T17:22:48.132Z,36.89
2023-04-12T17:25:14.985Z,37.15
2023-04-12T17:27:42.152Z,37.35
2023-04-12T17:30:12.550Z,38.24
2023-04-12T17:32:40.725Z,39.38
2023-04-12T17:35:08.184Z,40.10
2023-04-12T17:37:36.084Z,42.12
2023-04-12T17:40:05.532Z,41.65
2023-04-12T17:42:32.474Z,42.09
2023-04-12T17:44:59.419Z,42.11
2023-04-12T17:47:26.290Z,42.45
2023-04-12T17:49:53.366Z,41.91
2023-04-12T17:52:20.177Z,42.23
2023-04-12T17:54:47.240Z,43.17
2023-04-12T17:57:14.250Z,44.11
2023-04-12T17:59:41.766Z,44.91
2023-04-12T18:02:09.315Z,44.70
2023-04-12T18:04:36.918Z,46.24
2023-04-12T18:07:04.707Z,45.63
2023-04-12T18:09:33.983Z,46.54
2023-04-12T18:12:00.973Z,47.61
2023-04-12T18:14:27.780Z,47.37
2023-04-12T18:16:54.634Z,45.54
2023-04-12T18:19:21.604Z,46.64
2023-04-12T18:21:48.612Z,48.63
2023-04-12T18:24:17.099Z,47.74
2023-04-12T18:26:44.959Z,47.48
2023-04-12T18:29:14.490Z,47.70
2023-04-12T18:31:41.820Z,46.56
2023-04-12T18:34:09.068Z,46.50
2023-04-12T18:36:39.635Z,46.51
2023-04-12T18:39:08.161Z,48.38
2023-04-12T18:41:35.038Z,47.58
2023-04-12T18:44:01.910Z,47.66
2023-04-12T18:46:31.978Z,48.08
2023-04-12T18:48:59.197Z,47.79
2023-04-12T18:51:26.461Z,47.06
2023-04-12T18:53:53.321Z,48.95
2023-04-12T18:56:24.685Z,49.70
2023-04-12T18:58:56.310Z,50.81
2023-04-12T19:01:25.012Z,48.83
2023-04-12T19:03:52.707Z,48.78
2023-04-12T19:06:19.863Z,49.40
2023-04-12T19:08:46.896Z,51.54
2023-04-12T19:11:13.839Z,52.92
2023-04-12T19:13:40.648Z,52.52
2023-04-12T19:16:08.032Z,52.39
2023-04-12T19:18:36.455Z,53.12
2023-04-12T19:21:04.392Z,53.81
2023-04-12T19:23:32.435Z,56.18
2023-04-12T19:26:00.430Z,55.27
2023-04-12T19:28:28.311Z,54.63
2023-04-12T19:30:57.196Z,54.47
2023-04-12T19:33:24.930Z,55.91
2023-04-12T19:35:52.707Z,56.79
2023-04-12T19:38:22.358Z,56.11
2023-04-12T19:40:51.091Z,52.72
2023-04-12T19:43:21.337Z,53.61
2023-04-12T19:45:48.461Z,53.60
2023-04-12T19:48:17.287Z,53.99
2023-04-12T19:50:48.576Z,53.59
2023-04-12T19:53:20.065Z,53.87
2023-04-12T19:55:46.936Z,54.37
2023-04-12T19:58:16.836Z,55.24
2023-04-12T20:00:44.068Z,56.58
2023-04-12T20:03:11.016Z,56.56
2023-04-12T20:05:39.050Z,57.78
2023-04-12T20:08:06.011Z,58.46
2023-04-12T20:10:33.076Z,58.86
2023-04-12T20:13:00.340Z,58.90
2023-04-12T20:15:27.437Z,57.91
2023-04-12T20:17:54.315Z,57.75
2023-04-12T20:20:21.141Z,56.84
2023-04-12T20:22:52.274Z,57.72
2023-04-12T20:25:20.716Z,57.84
2023-04-12T20:27:54.266Z,58.06
2023-04-12T20:30:21.516Z,58.40
2023-04-12T20:32:54.553Z,58.84
2023-04-12T20:35:21.730Z,59.13
2023-04-12T20:37:50.734Z,58.85
2023-04-12T20:40:18.625Z,59.33
2023-04-12T20:42:45.457Z,58.89
2023-04-12T20:45:13.376Z,59.14
2023-04-12T20:47:40.813Z,59.42
2023-04-12T20:50:08.546Z,60.30
2023-04-12T20:52:35.418Z,60.40
2023-04-12T20:55:02.565Z,61.32
2023-04-12T20:57:30.377Z,61.14
2023-04-12T20:59:57.354Z,62.03
2023-04-12T21:02:24.542Z,60.84
2023-04-12T21:04:51.705Z,62.30
2023-04-12T21:07:20.400Z,62.72
2023-04-12T21:09:47.208Z,62.72
2023-04-12T21:12:14.032Z,61.80
2023-04-12T21:14:40.867Z,62.97
2023-04-12T21:17:08.077Z,62.76
2023-04-12T21:19:41.113Z,63.04
2023-04-12T21:22:08.939Z,62.95
2023-04-12T21:24:38.429Z,63.49
2023-04-12T21:27:09.193Z,65.01
2023-04-12T21:29:41.455Z,65.61
2023-04-12T21:32:09.582Z,65.93
2023-04-12T21:34:37.634Z,65.61
2023-04-12T21:37:04.626Z,64.86
2023-04-12T21:39:32.616Z,63.82
2023-04-12T21:41:59.441Z,62.60
2023-04-12T21:44:26.808Z,62.53
2023-04-12T21:46:53.718Z,63.11
2023-04-12T21:49:20.611Z,63.11
2023-04-12T21:51:49.410Z,63.82
2023-04-12T21:54:16.751Z,63.66
2023-04-12T21:56:43.800Z,63.79
2023-04-12T21:59:13.811Z,62.90
2023-04-12T22:01:41.753Z,62.16
2023-04-12T22:04:08.690Z,63.20
2023-04-12T22:06:35.548Z,63.17
2023-04-12T22:09:04.276Z,62.95
2023-04-12T22:11:31.283Z,63.20
2023-04-12T22:13:58.430Z,63.69
2023-04-12T22:16:25.465Z,63.40
2023-04-12T22:18:53.030Z,63.06
2023-04-12T22:21:20.037Z,63.41
2023-04-12T22:23:46.916Z,62.87
2023-04-12T22:28:56.821Z,63.08
2023-04-12T22:31:26.222Z,63.00
2023-04-12T22:33:55.321Z,63.85
2023-04-12T22:36:22.555Z,63.44
2023-04-12T22:38:49.384Z,63.86
2023-04-12T22:41:19.729Z,63.65
2023-04-12T22:43:47.862Z,64.18
2023-04-12T22:46:18.743Z,62.76
2023-04-12T22:48:49.432Z,64.53
2023-04-12T22:51:16.711Z,64.43
2023-04-12T22:53:43.725Z,64.15
2023-04-12T22:56:11.397Z,63.41
2023-04-12T22:58:40.388Z,65.69
2023-04-12T23:01:07.628Z,66.25
2023-04-12T23:03:34.727Z,66.06
2023-04-12T23:06:02.146Z,65.69
2023-04-12T23:08:29.367Z,66.86
2023-04-12T23:11:03.038Z,67.50
2023-04-12T23:13:30.246Z,68.37
2023-04-12T23:15:57.881Z,68.21
2023-04-12T23:18:25.918Z,68.79
2023-04-12T23:20:54.133Z,68.58
2023-04-12T23:23:24.643Z,67.76
2023-04-12T23:25:52.511Z,67.52
2023-04-12T23:28:19.681Z,66.69
2023-04-12T23:30:51.141Z,66.07
2023-04-12T23:33:20.382Z,64.88
2023-04-12T23:35:49.690Z,64.85
2023-04-12T23:38:23.475Z,65.78
2023-04-12T23:40:53.875Z,64.92
2023-04-12T23:43:25.724Z,63.15
2023-04-12T23:45:53.152Z,64.10
2023-04-12T23:48:20.202Z,65.29
2023-04-12T23:50:47.125Z,66.41
2023-04-12T23:53:15.218Z,66.73
2023-04-12T23:55:43.361Z,65.40
2023-04-12T23:58:10.440Z,66.53
